Time;durP1;ratioP1;P1;durP2;ratioP2;P2;SDS_P1;SDS_P2;PMS_P1;PMS_P2;Temp;Humidity;BMP_temperature;BMP_pressure;BME280_temperature;BME280_humidity;BME280_pressure;Samples;Min_cycle;Max_cycle;Signal;HPM_P1;HPM_P2
2023/01/28 00:00:42;;;;;;;12.85;9.38;;;22.10;37.60;;;;;;6123132;28;82848;-66
2023/01/28 00:03:42;;;;;;;13.65;9.63;;;22.10;37.50;;;;;;6124790;28;80726;-68
2023/01/28 00:06:43;;;;;;;13.70;9.40;;;22.00;37.30;;;;;;6124729;28;80342;-69
2023/01/28 00:09:43;;;;;;;13.02;9.40;;;22.00;37.80;;;;;;6115491;28;80643;-68
2023/01/28 00:12:44;;;;;;;14.85;9.25;;;22.00;37.50;;;;;;6120473;28;81466;-68
2023/01/28 00:15:45;;;;;;;10.98;8.05;;;22.00;37.60;;;;;;6143209;28;81107;-68
2023/01/28 00:18:45;;;;;;;14.57;9.23;;;22.00;37.70;;;;;;6130300;28;82647;-64
2023/01/28 00:21:46;;;;;;;13.48;9.52;;;22.00;37.80;;;;;;6132152;28;81737;-63
2023/01/28 00:24:46;;;;;;;13.20;9.15;;;22.00;37.80;;;;;;6129372;28;80569;-63
2023/01/28 00:27:47;;;;;;;14.40;8.93;;;22.00;37.80;;;;;;6128259;28;83433;-64
2023/01/28 00:30:50;;;;;;;12.68;9.05;;;22.00;37.80;;;;;;6128485;28;81320;-64
2023/01/28 00:33:50;;;;;;;12.98;9.10;;;22.00;37.80;;;;;;6120960;28;80309;-64
2023/01/28 00:36:56;;;;;;;13.88;10.10;;;22.00;37.80;;;;;;6132235;28;81633;-65
2023/01/28 00:39:58;;;;;;;13.65;9.88;;;22.00;37.60;;;;;;6135167;28;83889;-67
2023/01/28 00:42:58;;;;;;;14.13;9.90;;;22.00;37.60;;;;;;6129422;28;82392;-67
2023/01/28 00:45:59;;;;;;;17.75;9.32;;;22.00;37.40;;;;;;6141698;28;81816;-66
2023/01/28 00:49:01;;;;;;;13.70;9.95;;;22.00;37.50;;;;;;6152326;28;81429;-67
2023/01/28 00:52:01;;;;;;;13.73;9.63;;;22.00;37.50;;;;;;6166097;28;82117;-66
2023/01/28 00:55:02;;;;;;;13.23;9.45;;;21.90;37.70;;;;;;6153676;28;83952;-66
2023/01/28 00:58:02;;;;;;;14.70;10.20;;;21.90;37.50;;;;;;6147165;28;80367;-67
2023/01/28 01:01:03;;;;;;;13.00;9.18;;;21.90;37.60;;;;;;6132997;28;83168;-67
2023/01/28 01:04:04;;;;;;;14.93;9.52;;;21.90;37.90;;;;;;6127935;28;83567;-66
2023/01/28 01:07:05;;;;;;;13.68;9.70;;;21.90;37.90;;;;;;6127727;28;81382;-64
2023/01/28 01:10:05;;;;;;;13.77;9.52;;;21.90;37.90;;;;;;6138672;28;80306;-63
2023/01/28 01:13:06;;;;;;;12.73;9.40;;;21.90;37.90;;;;;;6125624;28;80467;-62
2023/01/28 01:16:06;;;;;;;14.40;9.70;;;21.90;37.90;;;;;;6130749;28;81002;-48
2023/01/28 01:19:07;;;;;;;13.45;9.38;;;21.90;37.90;;;;;;6136488;28;80952;-48
2023/01/28 01:22:09;;;;;;;13.23;9.63;;;21.90;38.10;;;;;;6127724;28;83418;-47
2023/01/28 01:25:10;;;;;;;12.38;9.15;;;21.80;37.90;;;;;;6133048;28;83230;-50
2023/01/28 01:28:10;;;;;;;12.10;8.57;;;21.90;37.80;;;;;;6109347;28;81894;-50
2023/01/28 01:31:12;;;;;;;13.07;8.88;;;21.90;38.10;;;;;;6142253;28;81438;-49
2023/01/28 01:34:13;;;;;;;13.93;9.30;;;21.80;38.10;;;;;;6110225;28;82526;-48
2023/01/28 01:37:13;;;;;;;12.73;9.48;;;21.80;38.00;;;;;;6118797;28;83826;-49
2023/01/28 01:40:14;;;;;;;13.65;9.07;;;21.80;37.90;;;;;;6116067;28;80806;-51
2023/01/28 01:43:15;;;;;;;11.80;9.20;;;21.90;38.00;;;;;;6121783;28;81225;-49
2023/01/28 01:46:15;;;;;;;11.57;8.93;;;21.80;37.80;;;;;;6111946;28;81072;-48
2023/01/28 01:49:18;;;;;;;12.38;8.85;;;21.80;37.80;;;;;;6127054;28;82877;-47
2023/01/28 01:52:18;;;;;;;12.32;8.55;;;21.80;38.00;;;;;;6125106;28;83280;-48
2023/01/28 01:55:19;;;;;;;17.88;9.00;;;21.80;38.00;;;;;;6129863;28;83056;-51
2023/01/28 01:58:19;;;;;;;11.68;8.90;;;21.80;38.10;;;;;;6108737;28;81198;-50
2023/01/28 02:01:21;;;;;;;13.70;9.60;;;21.80;38.10;;;;;;6109894;28;80243;-50
2023/01/28 02:04:21;;;;;;;10.70;8.05;;;21.80;38.40;;;;;;6122101;28;80800;-52
2023/01/28 02:07:22;;;;;;;12.15;9.18;;;21.80;38.50;;;;;;6111213;28;80445;-50
2023/01/28 02:10:22;;;;;;;11.90;8.63;;;21.80;38.30;;;;;;6107770;28;80965;-50
2023/01/28 02:13:23;;;;;;;10.43;8.20;;;21.80;38.40;;;;;;6106608;28;83200;-51
2023/01/28 02:16:23;;;;;;;11.10;8.48;;;21.80;38.40;;;;;;6115627;28;82950;-49
2023/01/28 02:19:24;;;;;;;14.73;9.43;;;21.80;38.40;;;;;;6126921;28;81533;-51
2023/01/28 02:22:24;;;;;;;13.15;9.27;;;21.80;38.30;;;;;;6124948;28;81396;-50
2023/01/28 02:25:26;;;;;;;11.98;8.60;;;21.80;38.40;;;;;;6126377;28;83706;-49
2023/01/28 02:28:27;;;;;;;12.15;8.48;;;21.80;38.30;;;;;;6152863;28;83307;-50
2023/01/28 02:31:27;;;;;;;12.88;8.93;;;21.80;38.60;;;;;;6127413;28;83729;-51
2023/01/28 02:34:28;;;;;;;11.65;8.98;;;21.80;38.70;;;;;;6116292;28;83352;-50
2023/01/28 02:37:28;;;;;;;14.77;8.70;;;21.70;38.70;;;;;;6126429;28;83540;-49
2023/01/28 02:40:31;;;;;;;12.13;8.85;;;21.80;38.70;;;;;;6139509;28;82231;-51
2023/01/28 02:43:31;;;;;;;10.27;8.05;;;21.80;38.40;;;;;;6128122;28;81828;-48
2023/01/28 02:49:51;;;;;;;11.93;8.18;;;21.70;38.60;;;;;;6137194;28;80490;-48
2023/01/28 02:56:11;;;;;;;13.65;8.85;;;21.70;38.50;;;;;;6136666;28;83623;-49
2023/01/28 02:59:29;;;;;;;11.95;8.35;;;21.70;38.40;;;;;;6126638;28;80579;-47
2023/01/28 03:02:31;;;;;;;12.00;8.95;;;21.70;38.40;;;;;;6125563;28;83346;-47
2023/01/28 03:05:32;;;;;;;12.20;8.82;;;21.70;38.50;;;;;;6132506;28;83288;-50
2023/01/28 03:38:40;;;;;;;12.80;8.82;;;21.70;39.10;;;;;;6119684;28;83044;-54
2023/01/28 03:41:42;;;;;;;11.88;8.10;;;21.70;39.10;;;;;;6106814;28;83191;-55
2023/01/28 03:44:52;;;;;;;11.40;8.20;;;21.60;39.00;;;;;;6117007;28;83023;-51
2023/01/28 03:47:53;;;;;;;12.65;8.70;;;21.70;39.30;;;;;;6140598;28;82305;-54
2023/01/28 03:50:54;;;;;;;11.65;7.97;;;21.70;39.40;;;;;;6142804;28;82919;-55
2023/01/28 03:53:56;;;;;;;11.73;7.95;;;21.70;39.50;;;;;;6136605;28;83260;-51
2023/01/28 03:56:56;;;;;;;12.25;8.68;;;21.70;39.30;;;;;;6120631;28;83222;-50
2023/01/28 03:59:57;;;;;;;14.50;9.07;;;21.70;39.30;;;;;;6135489;28;83327;-52
2023/01/28 04:02:57;;;;;;;12.80;8.80;;;21.70;39.10;;;;;;6116846;28;83318;-52
2023/01/28 04:05:58;;;;;;;10.80;8.02;;;21.70;39.80;;;;;;6121967;28;82930;-53
2023/01/28 04:09:00;;;;;;;12.65;8.32;;;21.70;39.10;;;;;;6128296;28;83061;-54
2023/01/28 04:12:19;;;;;;;11.98;9.05;;;21.70;38.90;;;;;;6114997;28;86869;-54
2023/01/28 04:15:24;;;;;;;14.07;9.32;;;21.70;38.30;;;;;;6128287;28;83032;-50
2023/01/28 04:18:26;;;;;;;13.48;9.00;;;21.80;38.10;;;;;;6136560;28;83368;-53
2023/01/28 04:21:28;;;;;;;11.55;8.77;;;21.80;37.80;;;;;;6134890;28;82804;-53
2023/01/28 04:24:29;;;;;;;13.38;9.45;;;21.90;37.30;;;;;;6114236;28;81087;-56
2023/01/28 04:27:30;;;;;;;13.52;9.30;;;22.00;37.20;;;;;;6119097;28;83172;-55
2023/01/28 04:30:36;;;;;;;;;;;22.00;37.30;;;;;;6142647;28;80226;-57
2023/01/28 04:34:04;;;;;;;12.82;9.38;;;22.00;36.90;;;;;;6141312;28;82445;-55
2023/01/28 04:37:18;;;;;;;14.80;10.32;;;22.10;36.90;;;;;;6127239;28;80946;-55
2023/01/28 04:40:37;;;;;;;15.38;10.10;;;22.20;36.80;;;;;;6126517;28;85601;-55
2023/01/28 04:43:44;;;;;;;14.95;9.50;;;22.20;36.50;;;;;;6133424;28;83094;-55
2023/01/28 04:47:10;;;;;;;13.27;9.60;;;22.20;36.50;;;;;;6127454;28;81836;-55
2023/01/28 04:50:38;;;;;;;12.90;9.32;;;22.30;36.50;;;;;;6146232;28;83394;-58
2023/01/28 04:53:50;;;;;;;15.02;9.40;;;22.30;36.50;;;;;;6131945;28;83497;-55
2023/01/28 04:57:00;;;;;;;13.23;9.85;;;22.30;36.40;;;;;;6149653;28;88004;-54
2023/01/28 05:00:01;;;;;;;13.18;9.93;;;22.30;36.30;;;;;;6127783;28;80776;-51
2023/01/28 05:03:01;;;;;;;12.63;9.35;;;22.30;36.30;;;;;;6128900;28;83390;-51
2023/01/28 05:06:03;;;;;;;15.00;10.23;;;22.40;36.10;;;;;;6132646;28;82949;-53
2023/01/28 05:09:11;;;;;;;14.25;9.75;;;22.40;36.20;;;;;;6124806;28;87979;-54
2023/01/28 05:12:11;;;;;;;14.50;9.85;;;22.40;36.20;;;;;;6125975;28;85842;-54
2023/01/28 05:15:13;;;;;;;14.52;9.93;;;22.40;36.10;;;;;;6109924;28;82356;-54
2023/01/28 05:18:13;;;;;;;15.55;9.07;;;22.40;35.80;;;;;;6106186;28;80449;-54
2023/01/28 05:21:20;;;;;;;12.13;9.18;;;22.40;36.00;;;;;;6116897;28;81439;-54
2023/01/28 05:24:26;;;;;;;13.55;9.95;;;22.40;35.80;;;;;;6111148;28;81919;-54
2023/01/28 05:27:27;;;;;;;13.43;9.30;;;22.50;36.00;;;;;;6118938;28;83564;-56
2023/01/28 05:30:27;;;;;;;12.85;9.10;;;22.50;35.90;;;;;;6121367;28;85427;-56
2023/01/28 05:33:28;;;;;;;12.75;9.43;;;22.50;35.80;;;;;;6127820;28;83215;-55
2023/01/28 05:36:29;;;;;;;13.95;9.38;;;22.50;35.80;;;;;;6131681;28;82673;-55
2023/01/28 05:39:30;;;;;;;17.58;9.80;;;22.50;35.80;;;;;;6133441;28;84292;-52
2023/01/28 05:42:31;;;;;;;12.02;8.70;;;22.50;35.80;;;;;;6116708;28;80006;-51
2023/01/28 05:45:46;;;;;;;14.35;8.75;;;22.60;35.80;;;;;;6105566;28;81666;-53
2023/01/28 05:49:11;;;;;;;13.05;9.27;;;22.50;35.70;;;;;;6115335;28;80114;-50
2023/01/28 05:52:43;;;;;;;14.40;9.77;;;22.60;35.60;;;;;;6106510;28;81430;-53
2023/01/28 05:55:53;;;;;;;13.20;9.10;;;22.50;35.50;;;;;;6109654;28;80710;-54
2023/01/28 05:58:54;;;;;;;14.18;9.55;;;22.60;35.50;;;;;;6122475;28;83605;-52
2023/01/28 06:01:54;;;;;;;14.52;8.63;;;22.60;35.50;;;;;;6124952;28;82672;-50
2023/01/28 06:04:55;;;;;;;13.63;9.45;;;22.60;35.40;;;;;;6127007;28;83040;-53
2023/01/28 06:07:55;;;;;;;12.30;8.55;;;22.60;35.40;;;;;;6136468;28;83564;-55
2023/01/28 06:10:56;;;;;;;12.65;8.95;;;22.60;35.80;;;;;;6129478;28;83354;-62
2023/01/28 06:13:58;;;;;;;16.83;8.80;;;22.60;35.60;;;;;;6141471;28;82909;-64
2023/01/28 06:17:37;;;;;;;14.93;8.98;;;22.60;35.60;;;;;;6122390;28;82168;-66
2023/01/28 06:20:48;;;;;;;11.48;7.97;;;22.70;35.90;;;;;;6116992;28;83551;-68
2023/01/28 06:23:49;;;;;;;16.15;8.60;;;22.60;35.60;;;;;;6125273;28;83819;-70
2023/01/28 06:26:49;;;;;;;15.20;8.63;;;22.60;35.60;;;;;;6127090;28;82069;-64
2023/01/28 06:29:50;;;;;;;11.27;8.45;;;22.70;35.50;;;;;;6118886;28;83265;-73
2023/01/28 06:32:51;;;;;;;11.45;8.35;;;22.60;35.30;;;;;;6105595;28;81264;-72
2023/01/28 06:35:51;;;;;;;15.18;7.95;;;22.60;36.40;;;;;;6107095;28;80433;-70
2023/01/28 06:38:52;;;;;;;14.77;7.90;;;22.60;36.70;;;;;;6105164;28;80935;-72
2023/01/28 06:41:52;;;;;;;12.73;8.50;;;22.60;38.10;;;;;;6108311;28;80824;-71
2023/01/28 06:44:53;;;;;;;11.95;8.50;;;22.50;38.30;;;;;;6111834;28;80818;-72
2023/01/28 06:47:54;;;;;;;15.60;9.70;;;22.50;38.90;;;;;;6108058;28;80285;-59
2023/01/28 06:50:54;;;;;;;15.10;10.32;;;22.50;38.80;;;;;;6107314;28;80889;-49
2023/01/28 06:53:55;;;;;;;25.38;18.48;;;22.50;38.50;;;;;;6099480;28;83425;-49
2023/01/28 06:56:55;;;;;;;29.00;18.33;;;22.40;39.70;;;;;;6103005;28;87211;-48
2023/01/28 06:59:56;;;;;;;25.85;16.35;;;22.40;39.40;;;;;;6096633;28;83405;-50
2023/01/28 07:02:56;;;;;;;32.55;19.63;;;22.40;39.30;;;;;;6102598;28;84334;-47
2023/01/28 07:05:57;;;;;;;37.55;21.48;;;22.40;39.90;;;;;;6110765;28;82802;-46
2023/01/28 07:08:57;;;;;;;34.47;19.17;;;22.40;39.70;;;;;;6115389;28;87911;-48
2023/01/28 07:11:58;;;;;;;36.00;21.50;;;22.40;39.60;;;;;;6120373;28;85870;-48
2023/01/28 07:14:59;;;;;;;31.45;19.83;;;22.30;39.90;;;;;;6095186;28;88234;-47
2023/01/28 07:17:59;;;;;;;32.20;19.52;;;22.40;39.70;;;;;;6104368;28;89458;-47
2023/01/28 07:21:00;;;;;;;27.75;17.17;;;22.40;39.50;;;;;;6103119;28;85006;-49
2023/01/28 07:24:00;;;;;;;29.95;17.60;;;22.30;39.80;;;;;;6119134;28;83894;-53
2023/01/28 07:27:02;;;;;;;27.90;17.63;;;22.40;39.30;;;;;;6104653;28;84529;-48
2023/01/28 07:30:03;;;;;;;21.92;14.90;;;22.30;39.10;;;;;;6103248;28;82868;-53
2023/01/28 07:33:03;;;;;;;24.33;15.05;;;22.30;38.70;;;;;;6103136;28;83754;-52
2023/01/28 07:36:04;;;;;;;23.27;14.95;;;22.30;38.50;;;;;;6107007;28;83154;-52
2023/01/28 07:39:04;;;;;;;21.73;13.65;;;22.20;38.90;;;;;;6106746;28;83509;-48
2023/01/28 07:42:05;;;;;;;20.98;14.15;;;22.20;39.00;;;;;;6114258;28;84141;-52
2023/01/28 07:45:10;;;;;;;22.15;13.60;;;22.20;38.80;;;;;;6113525;28;88819;-52
2023/01/28 07:48:11;;;;;;;17.77;12.90;;;22.20;38.90;;;;;;6108472;28;84221;-48
2023/01/28 07:51:12;;;;;;;20.92;12.63;;;22.20;38.80;;;;;;6113296;28;83200;-53
2023/01/28 07:54:13;;;;;;;20.63;12.30;;;22.10;39.00;;;;;;6112284;28;83560;-51
2023/01/28 07:57:13;;;;;;;16.88;11.45;;;22.10;38.70;;;;;;6103125;28;83398;-57
2023/01/28 08:00:14;;;;;;;17.58;10.25;;;22.10;38.70;;;;;;6106879;28;88195;-53
2023/01/28 08:03:14;;;;;;;15.52;10.30;;;22.10;38.50;;;;;;6103745;28;83902;-50
2023/01/28 08:06:15;;;;;;;18.88;10.50;;;22.00;38.70;;;;;;6107388;28;84210;-52
2023/01/28 08:09:16;;;;;;;17.38;10.45;;;22.00;38.30;;;;;;6109258;28;83846;-54
2023/01/28 08:12:16;;;;;;;14.77;10.18;;;22.00;38.30;;;;;;6096092;28;83790;-55
2023/01/28 08:15:17;;;;;;;16.65;9.88;;;22.10;38.60;;;;;;6101485;28;83539;-53
2023/01/28 08:18:17;;;;;;;14.52;10.02;;;22.10;39.20;;;;;;6099474;28;82928;-53
2023/01/28 08:21:18;;;;;;;13.45;9.18;;;22.10;39.00;;;;;;6101996;28;83739;-55
2023/01/28 08:24:18;;;;;;;13.57;9.02;;;22.10;38.80;;;;;;6097512;28;83567;-58
2023/01/28 08:27:19;;;;;;;13.32;8.98;;;22.10;38.50;;;;;;6093822;28;80648;-62
2023/01/28 08:30:19;;;;;;;12.60;7.43;;;22.10;37.90;;;;;;6093589;28;81829;-53
2023/01/28 08:33:20;;;;;;;11.45;7.80;;;22.20;37.90;;;;;;6094553;28;81239;-53
2023/01/28 08:36:21;;;;;;;13.77;7.57;;;22.30;37.80;;;;;;6096669;28;82692;-53
2023/01/28 08:39:21;;;;;;;10.75;7.63;;;22.30;37.70;;;;;;6095205;28;80860;-54
2023/01/28 08:42:22;;;;;;;13.45;7.93;;;22.40;37.80;;;;;;6092801;28;80679;-54
2023/01/28 08:45:24;;;;;;;10.05;6.97;;;22.40;37.80;;;;;;6100373;28;81145;-52
2023/01/28 08:48:24;;;;;;;10.27;7.53;;;22.50;37.80;;;;;;6107544;28;82613;-53
2023/01/28 08:51:25;;;;;;;12.52;7.03;;;22.50;37.50;;;;;;6105621;28;87559;-65
2023/01/28 08:54:25;;;;;;;7.97;6.47;;;22.50;37.40;;;;;;6110563;28;81535;-65
2023/01/28 08:57:26;;;;;;;9.25;6.97;;;22.50;36.70;;;;;;6104738;28;80581;-53
2023/01/28 09:00:26;;;;;;;9.95;6.80;;;22.50;36.30;;;;;;6102223;28;81298;-51
2023/01/28 09:03:27;;;;;;;9.10;6.53;;;22.60;36.40;;;;;;6103998;28;80658;-49
2023/01/28 09:06:28;;;;;;;8.80;6.68;;;22.60;36.40;;;;;;6114466;28;84906;-51
2023/01/28 09:09:28;;;;;;;11.30;6.72;;;22.60;35.80;;;;;;6118531;28;81406;-58
2023/01/28 09:12:29;;;;;;;9.85;6.53;;;22.60;35.80;;;;;;6125652;28;81542;-53
2023/01/28 09:15:29;;;;;;;9.07;6.47;;;22.60;35.90;;;;;;6107507;28;83147;-61
2023/01/28 09:18:30;;;;;;;9.75;6.28;;;22.60;35.80;;;;;;6118086;28;83402;-59
2023/01/28 09:21:30;;;;;;;10.93;5.93;;;22.60;35.80;;;;;;6113696;28;80499;-60
2023/01/28 09:24:31;;;;;;;8.50;6.07;;;22.60;35.90;;;;;;6115650;28;81891;-61
2023/01/28 09:27:31;;;;;;;10.30;6.50;;;22.60;36.00;;;;;;6123869;28;80381;-61
2023/01/28 09:30:32;;;;;;;11.20;6.60;;;22.60;35.80;;;;;;6118124;28;80646;-61
2023/01/28 09:33:32;;;;;;;11.38;6.32;;;22.60;35.70;;;;;;6127148;28;80782;-62
2023/01/28 09:36:33;;;;;;;7.25;5.68;;;22.60;35.50;;;;;;6128801;28;81279;-62
2023/01/28 09:39:33;;;;;;;10.32;6.70;;;22.70;35.70;;;;;;6147017;28;81115;-61
2023/01/28 09:42:34;;;;;;;7.88;5.72;;;22.60;35.50;;;;;;6137777;28;81781;-61
2023/01/28 09:45:34;;;;;;;10.50;5.85;;;22.70;35.50;;;;;;6148985;28;80031;-62
2023/01/28 09:48:36;;;;;;;8.07;5.68;;;22.70;35.30;;;;;;6140563;28;81515;-61
2023/01/28 09:51:37;;;;;;;8.35;5.70;;;22.70;35.50;;;;;;6137382;28;80445;-61
2023/01/28 09:54:38;;;;;;;10.98;6.07;;;22.60;35.10;;;;;;6140779;28;80287;-62
2023/01/28 09:57:38;;;;;;;10.13;5.97;;;22.70;35.40;;;;;;6127454;28;82116;-62
2023/01/28 10:00:39;;;;;;;16.23;6.22;;;22.70;35.40;;;;;;6139994;28;80795;-63
2023/01/28 10:03:40;;;;;;;9.27;6.22;;;22.70;35.30;;;;;;6131535;28;80326;-64
2023/01/28 10:06:41;;;;;;;14.98;6.35;;;22.70;35.60;;;;;;6137605;28;81649;-67
2023/01/28 10:09:41;;;;;;;8.45;5.10;;;22.70;35.40;;;;;;6134930;28;80343;-67
2023/01/28 10:12:42;;;;;;;9.80;6.13;;;22.70;35.60;;;;;;6123690;28;80818;-59
2023/01/28 10:15:43;;;;;;;8.73;5.95;;;22.70;35.50;;;;;;6121396;28;80377;-67
2023/01/28 10:18:43;;;;;;;8.43;5.70;;;22.70;35.60;;;;;;6122861;28;82824;-64
2023/01/28 10:21:44;;;;;;;11.10;6.15;;;22.70;34.90;;;;;;6116079;28;80436;-68
2023/01/28 10:24:44;;;;;;;8.18;5.25;;;22.70;35.20;;;;;;6132405;28;80628;-65
2023/01/28 10:27:45;;;;;;;8.18;5.55;;;22.70;35.50;;;;;;6131907;28;80488;-64
2023/01/28 10:30:45;;;;;;;12.80;5.40;;;22.70;35.10;;;;;;6115842;28;80318;-64
2023/01/28 10:33:46;;;;;;;12.75;5.82;;;22.70;35.40;;;;;;6111465;28;81065;-61
2023/01/28 10:36:46;;;;;;;10.40;5.60;;;22.70;35.10;;;;;;6120245;28;80468;-65
2023/01/28 10:39:47;;;;;;;8.30;6.15;;;22.70;35.10;;;;;;6118038;28;80841;-69
2023/01/28 10:42:47;;;;;;;7.93;5.60;;;22.70;34.70;;;;;;6116500;28;80352;-65
2023/01/28 10:45:48;;;;;;;7.97;6.10;;;22.70;34.30;;;;;;6109237;28;80554;-64
2023/01/28 10:48:49;;;;;;;9.13;6.07;;;22.80;34.30;;;;;;6103546;28;80679;-62
2023/01/28 10:51:49;;;;;;;9.90;6.03;;;22.80;34.00;;;;;;6103012;28;80420;-63
2023/01/28 10:54:50;;;;;;;8.98;5.53;;;22.80;34.10;;;;;;6123165;28;81415;-64
2023/01/28 10:57:50;;;;;;;9.10;6.00;;;22.80;34.00;;;;;;6122695;28;84193;-64
2023/01/28 11:00:51;;;;;;;9.05;5.90;;;22.90;34.50;;;;;;6112313;28;80538;-62
2023/01/28 11:03:51;;;;;;;11.90;6.45;;;22.90;35.10;;;;;;6119309;28;82667;-73
2023/01/28 11:06:52;;;;;;;9.55;6.03;;;22.90;35.70;;;;;;6120867;28;82267;-63
2023/01/28 11:09:52;;;;;;;9.13;6.15;;;22.90;36.30;;;;;;6109689;28;81386;-63
2023/01/28 11:12:53;;;;;;;9.38;6.43;;;22.90;38.20;;;;;;6120167;28;80408;-63
2023/01/28 11:15:53;;;;;;;10.65;6.47;;;22.90;36.70;;;;;;6120693;28;80683;-61
2023/01/28 11:18:54;;;;;;;10.07;6.50;;;22.90;36.50;;;;;;6113614;28;81226;-62
2023/01/28 11:21:54;;;;;;;8.82;6.53;;;22.90;37.60;;;;;;6090592;28;82255;-63
2023/01/28 11:24:55;;;;;;;40.78;19.80;;;22.90;36.70;;;;;;6101041;28;86407;-53
2023/01/28 11:27:55;;;;;;;100.65;42.58;;;22.90;37.00;;;;;;6095362;28;82885;-50
2023/01/28 11:30:56;;;;;;;152.20;77.75;;;22.90;36.90;;;;;;6106916;28;83902;-53
2023/01/28 11:33:56;;;;;;;250.15;156.63;;;22.90;36.40;;;;;;6098026;28;91685;-50
2023/01/28 11:36:57;;;;;;;347.67;231.15;;;22.80;35.60;;;;;;6099993;28;85790;-52
2023/01/28 11:39:57;;;;;;;338.13;225.35;;;22.80;34.90;;;;;;6096425;28;86020;-56
2023/01/28 11:42:59;;;;;;;254.50;183.30;;;22.70;34.10;;;;;;6094424;28;85793;-63
2023/01/28 11:45:59;;;;;;;203.77;140.15;;;22.70;34.40;;;;;;6110567;28;85865;-61
2023/01/28 11:49:00;;;;;;;174.38;115.90;;;22.70;34.60;;;;;;6094658;28;87862;-62
2023/01/28 11:52:00;;;;;;;128.18;89.95;;;22.60;34.40;;;;;;6096681;28;85299;-61
2023/01/28 11:55:01;;;;;;;112.85;76.60;;;22.60;34.60;;;;;;6111164;28;90778;-63
2023/01/28 11:58:01;;;;;;;94.25;62.33;;;22.60;34.30;;;;;;6111375;28;84292;-64
2023/01/28 12:01:02;;;;;;;87.50;55.45;;;22.60;34.50;;;;;;6105961;28;83679;-61
2023/01/28 12:04:03;;;;;;;66.05;45.53;;;22.50;34.40;;;;;;6121141;28;84724;-60
2023/01/28 12:07:03;;;;;;;59.42;41.63;;;22.50;34.30;;;;;;6101442;28;84833;-67
2023/01/28 12:10:04;;;;;;;64.40;39.03;;;22.50;34.60;;;;;;6091235;28;83352;-63
2023/01/28 12:13:04;;;;;;;54.88;34.22;;;22.50;34.50;;;;;;6099647;28;83867;-66
2023/01/28 12:16:05;;;;;;;52.22;33.53;;;22.50;34.70;;;;;;6095939;28;83709;-63
2023/01/28 12:19:06;;;;;;;54.88;32.35;;;22.50;35.00;;;;;;6097322;28;84100;-62
2023/01/28 12:22:07;;;;;;;49.88;30.65;;;22.50;35.30;;;;;;6097642;28;85741;-62
2023/01/28 12:25:07;;;;;;;43.78;28.08;;;22.50;35.60;;;;;;6094092;28;83077;-61
2023/01/28 12:28:08;;;;;;;37.30;25.38;;;22.50;35.50;;;;;;6095072;28;90389;-63
2023/01/28 12:31:10;;;;;;;36.03;24.45;;;22.50;35.70;;;;;;6091451;28;83554;-64
2023/01/28 12:34:10;;;;;;;36.83;24.20;;;22.60;36.40;;;;;;6103803;28;84683;-64
2023/01/28 12:37:11;;;;;;;35.15;23.70;;;22.50;36.30;;;;;;6104802;28;84332;-64
2023/01/28 12:40:11;;;;;;;33.88;20.52;;;22.50;36.40;;;;;;6116037;28;83038;-62
2023/01/28 12:43:12;;;;;;;34.15;19.05;;;22.60;36.20;;;;;;6105551;28;84314;-64
2023/01/28 12:46:12;;;;;;;25.30;17.55;;;22.50;36.10;;;;;;6108913;28;83708;-62
2023/01/28 12:49:13;;;;;;;25.35;17.55;;;22.50;36.40;;;;;;6128433;28;82968;-62
2023/01/28 12:52:14;;;;;;;25.23;16.20;;;22.50;36.00;;;;;;6118042;28;90111;-61
2023/01/28 12:55:14;;;;;;;22.10;15.18;;;22.50;36.20;;;;;;6111105;28;83057;-63
2023/01/28 12:58:15;;;;;;;20.92;14.25;;;22.50;36.60;;;;;;6115578;28;84763;-64
2023/01/28 13:01:16;;;;;;;25.15;14.10;;;22.50;36.10;;;;;;6110136;28;83130;-64
2023/01/28 13:04:16;;;;;;;22.67;14.85;;;22.50;36.00;;;;;;6109373;28;84027;-66
2023/01/28 13:07:17;;;;;;;20.48;13.70;;;22.50;36.00;;;;;;6104810;28;87026;-66
2023/01/28 13:10:17;;;;;;;19.45;13.32;;;22.40;35.80;;;;;;6104618;28;85137;-63
2023/01/28 13:13:18;;;;;;;15.52;11.50;;;22.40;35.80;;;;;;6118350;28;82998;-64
2023/01/28 13:16:18;;;;;;;20.45;11.93;;;22.40;35.50;;;;;;6098845;28;84151;-62
2023/01/28 13:19:19;;;;;;;16.05;10.80;;;22.40;35.60;;;;;;6104473;28;83176;-63
2023/01/28 13:22:19;;;;;;;17.23;11.27;;;22.40;35.70;;;;;;6097070;28;87915;-63
2023/01/28 13:25:20;;;;;;;17.80;11.30;;;22.40;35.70;;;;;;6100665;28;84499;-64
2023/01/28 13:28:20;;;;;;;17.63;11.15;;;22.40;35.70;;;;;;6115190;28;83016;-65
2023/01/28 13:31:21;;;;;;;13.98;9.70;;;22.30;35.90;;;;;;6111142;28;83510;-51
2023/01/28 13:34:21;;;;;;;12.32;9.15;;;22.40;35.60;;;;;;6132879;28;83407;-49
2023/01/28 13:37:22;;;;;;;12.75;8.90;;;22.40;35.60;;;;;;6114534;28;83277;-52
2023/01/28 13:40:22;;;;;;;14.25;9.43;;;22.40;35.70;;;;;;6111540;28;81907;-61
2023/01/28 13:43:23;;;;;;;15.10;9.15;;;22.40;36.20;;;;;;6115359;28;85112;-56
2023/01/28 13:46:23;;;;;;;11.75;8.85;;;22.40;35.90;;;;;;6111398;28;80425;-53
2023/01/28 13:49:24;;;;;;;13.00;8.43;;;22.30;36.00;;;;;;6113425;28;80864;-50
2023/01/28 13:52:25;;;;;;;13.05;8.73;;;22.30;36.50;;;;;;6130668;28;82922;-50
2023/01/28 13:55:25;;;;;;;17.38;9.98;;;22.30;36.30;;;;;;6122357;28;81057;-52
2023/01/28 13:58:26;;;;;;;16.77;9.52;;;22.30;36.40;;;;;;6121782;28;83914;-50
2023/01/28 14:01:27;;;;;;;17.38;9.65;;;22.30;36.80;;;;;;6112375;28;82795;-49
2023/01/28 14:04:27;;;;;;;15.50;9.20;;;22.30;37.90;;;;;;6109177;28;81455;-53
2023/01/28 14:07:28;;;;;;;16.88;8.63;;;22.30;37.60;;;;;;6115812;28;82917;-50
2023/01/28 14:10:28;;;;;;;15.30;8.35;;;22.30;38.50;;;;;;6116989;28;81477;-53
2023/01/28 14:13:29;;;;;;;15.05;8.20;;;22.40;39.60;;;;;;6122124;28;80408;-51
2023/01/28 14:16:29;;;;;;;14.88;8.25;;;22.40;39.20;;;;;;6119760;28;80705;-50
2023/01/28 14:19:30;;;;;;;13.98;7.35;;;22.40;38.80;;;;;;6123285;28;87657;-48
2023/01/28 14:22:31;;;;;;;11.13;7.70;;;22.30;38.20;;;;;;6115320;28;80833;-54
2023/01/28 14:25:31;;;;;;;11.65;7.60;;;22.30;38.20;;;;;;6111427;28;80971;-50
2023/01/28 14:28:32;;;;;;;11.05;7.38;;;22.30;38.10;;;;;;6124688;28;81110;-48
2023/01/28 14:31:32;;;;;;;17.38;9.57;;;22.40;38.00;;;;;;6116112;28;81933;-51
2023/01/28 14:34:33;;;;;;;10.20;7.47;;;22.40;38.00;;;;;;6104851;28;80491;-52
2023/01/28 14:37:33;;;;;;;11.93;7.65;;;22.40;38.10;;;;;;6101378;28;80617;-50
2023/01/28 14:40:34;;;;;;;9.02;6.95;;;22.40;38.00;;;;;;6099827;28;82044;-53
2023/01/28 14:43:34;;;;;;;12.30;8.10;;;22.40;37.90;;;;;;6104305;28;80375;-51
2023/01/28 14:46:35;;;;;;;10.38;6.68;;;22.40;37.70;;;;;;6101573;28;87686;-50
2023/01/28 14:49:35;;;;;;;9.95;6.70;;;22.40;37.90;;;;;;6107686;28;81344;-51
2023/01/28 14:52:36;;;;;;;11.23;7.03;;;22.40;37.80;;;;;;6103458;28;83435;-54
2023/01/28 14:55:37;;;;;;;11.05;7.53;;;22.40;37.70;;;;;;6118520;28;83828;-59
2023/01/28 14:58:37;;;;;;;10.57;7.03;;;22.40;37.80;;;;;;6129780;28;80900;-53
2023/01/28 15:01:38;;;;;;;11.88;7.25;;;22.40;37.40;;;;;;6109797;28;81909;-59
2023/01/28 15:04:38;;;;;;;12.88;6.70;;;22.30;37.30;;;;;;6104294;28;80544;-49
2023/01/28 15:07:39;;;;;;;10.88;6.60;;;22.30;37.40;;;;;;6118454;28;81868;-53
2023/01/28 15:10:39;;;;;;;9.73;6.63;;;22.30;37.20;;;;;;6106306;28;80499;-50
2023/01/28 15:13:40;;;;;;;11.25;7.80;;;22.30;37.50;;;;;;6112141;28;80181;-53
2023/01/28 15:16:40;;;;;;;10.77;6.70;;;22.30;37.50;;;;;;6111285;28;80781;-53
2023/01/28 15:19:41;;;;;;;10.27;6.90;;;22.20;37.00;;;;;;6120217;28;80245;-50
2023/01/28 15:22:41;;;;;;;11.60;7.43;;;22.20;36.30;;;;;;6110597;28;80364;-53
2023/01/28 15:25:42;;;;;;;10.68;7.45;;;22.10;36.30;;;;;;6115371;28;80401;-52
2023/01/28 15:28:42;;;;;;;12.98;7.65;;;22.10;36.30;;;;;;6124179;28;80487;-53
2023/01/28 15:31:43;;;;;;;17.08;9.82;;;22.10;36.30;;;;;;6128423;28;80280;-52
2023/01/28 15:34:43;;;;;;;14.20;9.50;;;22.20;35.90;;;;;;6138188;28;81280;-51
2023/01/28 15:37:44;;;;;;;15.27;10.68;;;22.20;35.40;;;;;;6135654;28;80537;-52
2023/01/28 15:40:44;;;;;;;16.35;10.43;;;22.20;34.80;;;;;;6136950;28;83039;-59
2023/01/28 15:43:45;;;;;;;17.15;11.48;;;22.10;34.00;;;;;;6128047;28;85531;-61
2023/01/28 15:46:46;;;;;;;20.05;12.23;;;22.10;33.40;;;;;;6124001;28;82976;-67
2023/01/28 15:49:46;;;;;;;18.92;12.40;;;22.20;32.90;;;;;;6108135;28;83467;-63
2023/01/28 15:52:47;;;;;;;18.60;12.88;;;22.20;32.70;;;;;;6108204;28;83472;-56
2023/01/28 15:55:47;;;;;;;20.00;13.20;;;22.20;32.30;;;;;;6106332;28;83626;-61
2023/01/28 15:58:48;;;;;;;23.63;14.30;;;22.20;32.10;;;;;;6103200;28;84881;-53
2023/01/28 16:01:48;;;;;;;22.52;14.32;;;22.30;32.00;;;;;;6106535;28;82987;-49
2023/01/28 16:04:49;;;;;;;25.50;15.07;;;22.30;31.70;;;;;;6107789;28;83464;-52
2023/01/28 16:07:50;;;;;;;23.27;14.57;;;22.30;31.60;;;;;;6099971;28;88113;-52